Time;durP1;ratioP1;P1;durP2;ratioP2;P2;SDS_P1;SDS_P2;PMS_P1;PMS_P2;Temp;Humidity;BMP_temperature;BMP_pressure;BME280_temperature;BME280_humidity;BME280_pressure;Samples;Min_cycle;Max_cycle;Signal;HPM_P1;HPM_P2
2023/06/16 00:02:17;;;;;;;14.43;8.55;;;16.30;99.40;;;;;;5071853;28;20051;-66
2023/06/16 00:04:43;;;;;;;19.13;8.52;;;16.30;99.70;;;;;;5071862;28;20162;-64
2023/06/16 00:07:09;;;;;;;12.85;7.55;;;16.30;99.90;;;;;;5069875;28;20051;-64
2023/06/16 00:09:36;;;;;;;14.60;7.60;;;16.30;99.90;;;;;;5071116;28;20051;-65
2023/06/16 00:12:02;;;;;;;13.60;7.70;;;16.20;99.90;;;;;;5065922;28;20033;-64
2023/06/16 00:14:28;;;;;;;13.48;7.32;;;16.20;99.90;;;;;;5082789;28;20052;-65
2023/06/16 00:16:57;;;;;;;13.30;6.55;;;16.20;99.90;;;;;;5071110;28;20560;-64
2023/06/16 00:19:27;;;;;;;11.18;6.80;;;16.20;99.90;;;;;;5088275;28;20047;-64
2023/06/16 00:21:52;;;;;;;10.55;6.65;;;16.20;99.90;;;;;;5073079;28;20058;-64
2023/06/16 00:24:18;;;;;;;11.00;6.53;;;16.30;99.90;;;;;;5051057;28;20040;-63
2023/06/16 00:26:44;;;;;;;10.50;6.85;;;16.20;99.90;;;;;;5068579;28;20044;-63
2023/06/16 00:29:10;;;;;;;10.80;7.22;;;16.20;99.90;;;;;;5068240;28;20043;-64
2023/06/16 00:31:36;;;;;;;12.30;7.65;;;16.20;99.90;;;;;;5068034;28;20435;-63
2023/06/16 00:34:02;;;;;;;11.85;8.05;;;16.20;99.90;;;;;;5068393;28;20087;-64
2023/06/16 00:36:28;;;;;;;15.60;8.07;;;16.20;99.90;;;;;;5052003;28;20143;-64
2023/06/16 00:38:53;;;;;;;13.65;9.23;;;16.10;99.90;;;;;;5067693;28;20143;-64
2023/06/16 00:41:19;;;;;;;13.40;9.50;;;16.20;99.90;;;;;;5068168;28;20132;-64
2023/06/16 00:43:45;;;;;;;15.90;9.10;;;16.10;99.90;;;;;;5052788;28;20085;-65
2023/06/16 00:46:19;;;;;;;13.45;9.18;;;16.10;99.90;;;;;;5067615;28;20051;-64
2023/06/16 00:48:44;;;;;;;13.75;9.05;;;16.10;99.90;;;;;;5051077;28;20073;-63
2023/06/16 00:51:11;;;;;;;15.57;9.73;;;16.10;99.90;;;;;;5066952;28;20040;-63
2023/06/16 00:53:38;;;;;;;16.60;10.43;;;16.10;99.90;;;;;;5050415;28;20099;-65
2023/06/16 00:56:04;;;;;;;17.13;12.10;;;16.10;99.90;;;;;;5067353;28;20495;-63
2023/06/16 00:58:30;;;;;;;17.05;12.05;;;16.10;99.90;;;;;;5050677;28;20110;-64
2023/06/16 01:00:57;;;;;;;17.67;12.07;;;16.20;99.90;;;;;;5051103;28;20044;-64
2023/06/16 01:03:22;;;;;;;15.13;11.43;;;16.20;99.90;;;;;;5067981;28;20492;-63
2023/06/16 01:05:48;;;;;;;15.55;11.80;;;16.20;99.90;;;;;;5066972;28;20037;-63
2023/06/16 01:08:38;;;;;;;17.20;12.70;;;16.20;99.90;;;;;;5066971;28;20036;-63
2023/06/16 01:11:17;;;;;;;18.13;12.52;;;16.10;99.90;;;;;;5059970;28;20035;-65
2023/06/16 01:14:06;;;;;;;18.17;13.98;;;16.20;99.90;;;;;;5083757;28;20546;-63
2023/06/16 01:16:35;;;;;;;20.00;12.93;;;16.20;99.90;;;;;;5067504;28;20063;-65
2023/06/16 01:19:08;;;;;;;18.52;13.02;;;16.20;99.90;;;;;;5051211;28;20040;-63
2023/06/16 01:21:50;;;;;;;16.27;12.55;;;16.20;99.90;;;;;;5066904;28;20052;-63
2023/06/16 01:24:18;;;;;;;19.77;12.57;;;16.20;99.90;;;;;;5052752;28;20395;-64
2023/06/16 01:26:51;;;;;;;15.40;11.02;;;16.20;99.90;;;;;;5055777;28;20178;-64
2023/06/16 01:29:21;;;;;;;20.98;12.00;;;16.20;99.90;;;;;;5063909;28;20059;-65
2023/06/16 01:31:50;;;;;;;17.38;12.10;;;16.20;99.90;;;;;;5070948;28;20044;-63
2023/06/16 01:34:17;;;;;;;18.88;12.25;;;16.10;99.90;;;;;;5064306;28;20044;-63
2023/06/16 01:36:44;;;;;;;16.27;12.20;;;16.10;99.90;;;;;;5049364;28;20067;-63
2023/06/16 01:39:13;;;;;;;18.73;12.10;;;16.10;99.90;;;;;;5067658;28;20571;-63
2023/06/16 01:41:40;;;;;;;15.48;12.23;;;16.00;99.90;;;;;;5068049;28;20047;-63
2023/06/16 01:44:06;;;;;;;17.00;12.40;;;16.00;99.90;;;;;;5078358;28;20059;-63
2023/06/16 01:46:33;;;;;;;22.35;12.27;;;15.90;99.90;;;;;;5070356;28;20097;-63
2023/06/16 01:49:00;;;;;;;16.75;12.43;;;15.90;99.90;;;;;;5052439;28;20111;-62
2023/06/16 01:51:25;;;;;;;17.15;12.52;;;15.90;99.90;;;;;;5066096;28;20033;-63
2023/06/16 01:53:52;;;;;;;17.48;12.57;;;15.90;99.90;;;;;;5066431;28;20193;-64
2023/06/16 01:56:18;;;;;;;18.40;12.52;;;15.90;99.90;;;;;;5066602;28;20048;-64
2023/06/16 01:58:45;;;;;;;15.40;11.95;;;15.80;99.90;;;;;;5058430;28;20086;-64
2023/06/16 02:01:20;;;;;;;18.98;13.18;;;15.80;99.90;;;;;;5087147;28;20492;-63
2023/06/16 02:04:01;;;;;;;16.30;11.32;;;15.80;99.90;;;;;;5086834;28;20658;-62
2023/06/16 02:06:56;;;;;;;18.27;12.80;;;15.70;99.90;;;;;;5068493;28;20058;-63
2023/06/16 02:09:25;;;;;;;17.30;13.43;;;15.70;99.90;;;;;;5063993;28;20044;-63
2023/06/16 02:11:53;;;;;;;18.23;13.75;;;15.70;99.90;;;;;;5066929;28;20036;-63
2023/06/16 02:14:20;;;;;;;21.20;13.40;;;15.70;99.90;;;;;;5050294;28;20040;-63
2023/06/16 02:16:50;;;;;;;19.30;13.70;;;15.60;99.90;;;;;;5066247;28;20129;-63
2023/06/16 02:19:16;;;;;;;21.75;14.02;;;15.60;99.90;;;;;;5066645;28;20492;-64
2023/06/16 02:21:43;;;;;;;18.77;13.95;;;15.60;99.90;;;;;;5064715;28;20090;-63
2023/06/16 02:24:09;;;;;;;20.08;14.55;;;15.60;99.90;;;;;;5066081;28;20067;-62
2023/06/16 02:26:35;;;;;;;16.77;12.90;;;15.60;99.90;;;;;;5049428;28;20048;-64
2023/06/16 02:29:02;;;;;;;19.60;13.25;;;15.60;99.90;;;;;;5066021;28;20039;-65
2023/06/16 02:31:27;;;;;;;18.98;12.80;;;15.60;99.90;;;;;;5065923;28;20056;-64
2023/06/16 02:33:54;;;;;;;19.48;14.50;;;15.60;99.90;;;;;;5066034;28;20515;-65
2023/06/16 02:36:21;;;;;;;16.58;12.15;;;15.60;99.90;;;;;;5064806;28;20058;-64
2023/06/16 02:38:46;;;;;;;18.42;14.07;;;15.60;99.90;;;;;;5048641;28;20052;-64
2023/06/16 02:41:13;;;;;;;17.50;13.27;;;15.60;99.90;;;;;;5066094;28;20710;-64
2023/06/16 02:43:39;;;;;;;21.15;15.93;;;15.60;99.90;;;;;;5075419;28;20051;-64
2023/06/16 02:46:07;;;;;;;18.70;13.30;;;15.70;99.90;;;;;;5068992;28;20040;-64
2023/06/16 02:48:33;;;;;;;18.23;13.55;;;15.60;99.90;;;;;;5069613;28;20522;-64
2023/06/16 02:50:59;;;;;;;20.60;14.15;;;15.60;99.90;;;;;;5069229;28;20101;-64
2023/06/16 02:53:25;;;;;;;20.33;14.02;;;15.50;99.90;;;;;;5065865;28;20435;-64
2023/06/16 02:55:53;;;;;;;21.27;15.07;;;15.50;99.90;;;;;;5064991;28;20040;-63
2023/06/16 02:58:20;;;;;;;19.65;15.48;;;15.50;99.90;;;;;;5065250;28;20106;-64
2023/06/16 03:00:46;;;;;;;18.83;13.82;;;15.50;99.90;;;;;;5082109;28;20048;-63
2023/06/16 03:03:12;;;;;;;19.02;14.82;;;15.50;99.90;;;;;;5065824;28;20041;-63
2023/06/16 03:05:38;;;;;;;20.58;16.23;;;15.50;99.90;;;;;;5047673;28;20052;-66
2023/06/16 03:08:04;;;;;;;19.20;15.38;;;15.50;99.90;;;;;;5064425;28;20546;-64
2023/06/16 03:10:30;;;;;;;21.63;16.27;;;15.50;99.90;;;;;;5064996;28;20036;-64
2023/06/16 03:12:56;;;;;;;20.65;15.27;;;15.50;99.90;;;;;;5066164;28;20036;-64
2023/06/16 03:15:23;;;;;;;21.73;16.25;;;15.50;99.90;;;;;;5068176;28;20441;-65
2023/06/16 03:17:49;;;;;;;22.60;17.15;;;15.50;99.90;;;;;;5075839;28;20040;-63
2023/06/16 03:20:15;;;;;;;24.08;17.67;;;15.60;99.90;;;;;;5048649;28;20255;-64
2023/06/16 03:22:41;;;;;;;24.15;17.60;;;15.60;99.90;;;;;;5047603;28;20032;-64
2023/06/16 03:25:07;;;;;;;21.17;17.13;;;15.60;99.90;;;;;;5064926;28;20044;-64
2023/06/16 03:27:40;;;;;;;22.08;17.15;;;15.70;99.90;;;;;;5065179;28;20127;-64
2023/06/16 03:30:07;;;;;;;21.52;16.88;;;15.60;99.90;;;;;;5065527;28;20437;-64
2023/06/16 03:32:33;;;;;;;22.30;16.92;;;15.70;99.90;;;;;;5065494;28;20076;-63
2023/06/16 03:35:02;;;;;;;22.92;17.15;;;15.70;99.90;;;;;;5064928;28;20076;-64
2023/06/16 03:37:28;;;;;;;23.10;17.85;;;15.70;99.90;;;;;;5046530;28;20153;-64
2023/06/16 03:39:53;;;;;;;23.67;17.60;;;15.80;99.90;;;;;;5065500;28;20072;-65
2023/06/16 03:42:19;;;;;;;21.35;17.73;;;15.90;99.90;;;;;;5083978;28;20048;-64
2023/06/16 03:44:45;;;;;;;26.90;17.98;;;16.10;99.90;;;;;;5080903;28;20033;-64
2023/06/16 03:47:11;;;;;;;22.15;17.85;;;16.20;99.90;;;;;;5048072;28;20040;-65
2023/06/16 03:49:37;;;;;;;22.42;18.20;;;16.30;99.90;;;;;;5048210;28;20044;-66
2023/06/16 03:52:03;;;;;;;25.33;17.75;;;16.40;99.90;;;;;;5062978;28;20102;-65
2023/06/16 03:54:29;;;;;;;23.92;18.45;;;16.50;99.90;;;;;;5048024;28;20084;-65
2023/06/16 03:56:55;;;;;;;27.65;18.27;;;16.60;99.90;;;;;;5048052;28;20091;-65
2023/06/16 03:59:21;;;;;;;22.00;17.13;;;16.80;99.90;;;;;;5077389;28;20576;-64
2023/06/16 04:01:51;;;;;;;23.67;18.23;;;16.90;99.90;;;;;;5068306;28;20166;-64
2023/06/16 04:04:17;;;;;;;22.60;18.10;;;17.20;99.90;;;;;;5068089;28;20628;-66
2023/06/16 04:06:43;;;;;;;26.33;17.88;;;17.40;99.90;;;;;;5069639;28;20056;-65
2023/06/16 04:09:10;;;;;;;26.25;19.40;;;17.60;99.90;;;;;;5064874;28;20560;-66
2023/06/16 04:11:40;;;;;;;23.80;18.10;;;17.80;99.90;;;;;;5077313;28;20039;-65
2023/06/16 04:14:06;;;;;;;23.02;17.67;;;18.00;99.90;;;;;;5057279;28;20044;-66
2023/06/16 04:16:34;;;;;;;20.35;16.65;;;18.20;99.90;;;;;;5064758;28;20059;-64
2023/06/16 04:19:03;;;;;;;21.80;16.67;;;18.40;99.90;;;;;;5048199;28;20040;-64
2023/06/16 04:21:28;;;;;;;20.77;16.65;;;18.60;99.90;;;;;;5077489;28;20076;-64
2023/06/16 04:23:54;;;;;;;19.35;15.50;;;18.90;99.90;;;;;;5084608;28;20051;-64
2023/06/16 04:26:22;;;;;;;23.50;16.98;;;19.00;99.90;;;;;;5057343;28;20136;-65
2023/06/16 04:28:53;;;;;;;21.30;15.68;;;19.20;99.90;;;;;;5064646;28;20037;-63
2023/06/16 04:31:28;;;;;;;19.73;15.88;;;19.20;99.90;;;;;;5064468;28;20418;-62
2023/06/16 04:33:56;;;;;;;22.58;15.50;;;19.40;99.90;;;;;;5048110;28;20076;-63
2023/06/16 04:36:22;;;;;;;21.88;17.52;;;19.50;99.90;;;;;;5063716;28;20040;-64
2023/06/16 04:38:48;;;;;;;20.15;15.70;;;19.60;99.90;;;;;;5064549;28;20052;-64
2023/06/16 04:41:14;;;;;;;21.50;16.02;;;19.80;99.90;;;;;;5048378;28;20051;-65
2023/06/16 04:43:40;;;;;;;18.65;14.68;;;19.90;99.90;;;;;;5067735;28;20075;-64
2023/06/16 04:46:06;;;;;;;22.05;14.35;;;20.20;99.90;;;;;;5050625;28;20036;-65
2023/06/16 04:48:32;;;;;;;20.40;14.85;;;20.50;99.10;;;;;;5068565;28;20133;-64
2023/06/16 04:50:58;;;;;;;18.17;14.35;;;20.50;98.70;;;;;;5051457;28;20041;-66
2023/06/16 04:53:24;;;;;;;22.67;15.10;;;20.50;98.50;;;;;;5067988;28;20082;-65
2023/06/16 04:55:50;;;;;;;16.23;12.52;;;20.50;98.30;;;;;;5090591;28;20435;-65
2023/06/16 04:58:15;;;;;;;15.40;11.73;;;20.60;98.10;;;;;;5084010;28;20076;-64
2023/06/16 05:00:41;;;;;;;18.00;12.50;;;20.70;97.70;;;;;;5067505;28;20064;-64
2023/06/16 05:03:07;;;;;;;18.02;11.95;;;20.90;97.30;;;;;;5067815;28;20049;-65
2023/06/16 05:05:32;;;;;;;17.38;12.90;;;21.00;96.90;;;;;;5069361;28;20343;-64
2023/06/16 05:07:58;;;;;;;17.27;12.73;;;21.00;96.60;;;;;;5071004;28;20036;-63
2023/06/16 05:10:25;;;;;;;18.90;13.05;;;21.10;96.40;;;;;;5068089;28;20099;-64
2023/06/16 05:12:51;;;;;;;15.55;12.60;;;21.20;96.10;;;;;;5050976;28;20090;-64
2023/06/16 05:15:17;;;;;;;22.00;13.25;;;21.30;95.80;;;;;;5051434;28;20048;-63
2023/06/16 05:17:43;;;;;;;16.85;13.23;;;21.20;95.70;;;;;;5075016;28;20051;-64
2023/06/16 05:20:09;;;;;;;19.08;13.48;;;21.40;95.70;;;;;;5067518;28;20040;-66
2023/06/16 05:22:35;;;;;;;19.67;13.20;;;21.40;95.30;;;;;;5057761;28;20736;-64
2023/06/16 05:25:01;;;;;;;18.40;15.15;;;21.40;95.20;;;;;;5084533;28;20052;-65
2023/06/16 05:27:26;;;;;;;20.08;14.50;;;21.60;95.00;;;;;;5067405;28;20111;-66
2023/06/16 05:29:53;;;;;;;17.70;14.27;;;21.90;94.70;;;;;;5082057;28;20053;-65
2023/06/16 05:32:21;;;;;;;18.25;14.57;;;22.10;94.40;;;;;;5087095;28;20407;-64
2023/06/16 05:34:51;;;;;;;21.35;16.02;;;22.60;94.00;;;;;;5087598;28;20073;-65
2023/06/16 05:37:18;;;;;;;21.55;15.80;;;23.10;93.30;;;;;;5067526;28;20044;-64
2023/06/16 05:39:46;;;;;;;19.80;15.82;;;23.10;92.80;;;;;;5087242;28;20052;-66
2023/06/16 05:42:14;;;;;;;19.55;15.13;;;23.00;92.60;;;;;;5068803;28;20044;-64
2023/06/16 05:44:40;;;;;;;20.77;16.00;;;22.80;92.60;;;;;;5053887;28;20416;-64
2023/06/16 05:47:07;;;;;;;19.23;15.60;;;22.70;92.70;;;;;;5049451;28;20044;-65
2023/06/16 05:49:32;;;;;;;19.90;16.02;;;22.60;92.80;;;;;;5057303;28;20040;-64
2023/06/16 05:51:59;;;;;;;21.77;16.08;;;22.50;92.90;;;;;;5066796;28;20040;-63
2023/06/16 05:54:24;;;;;;;19.83;15.45;;;22.40;93.00;;;;;;5067580;28;20523;-64
2023/06/16 05:56:50;;;;;;;19.85;14.70;;;22.40;93.10;;;;;;5067244;28;20073;-63
2023/06/16 05:59:17;;;;;;;21.85;15.52;;;22.40;93.20;;;;;;5074359;28;20052;-66
2023/06/16 06:01:43;;;;;;;19.00;14.48;;;22.40;93.40;;;;;;5085597;28;20127;-65
2023/06/16 06:04:11;;;;;;;20.25;15.00;;;22.40;93.30;;;;;;5083191;28;20728;-64
2023/06/16 06:06:38;;;;;;;20.92;14.50;;;22.40;93.40;;;;;;5063881;28;20059;-65
2023/06/16 06:09:07;;;;;;;23.42;14.35;;;22.50;93.50;;;;;;5053519;28;20123;-63
2023/06/16 06:11:32;;;;;;;21.08;13.73;;;22.60;93.50;;;;;;5067205;28;20075;-65
2023/06/16 06:13:58;;;;;;;18.23;12.50;;;22.60;93.40;;;;;;5075307;28;20098;-68
2023/06/16 06:16:24;;;;;;;19.60;11.75;;;22.50;93.00;;;;;;5047348;28;20044;-70
2023/06/16 06:18:50;;;;;;;15.75;11.82;;;22.40;92.80;;;;;;5063816;28;20075;-69
2023/06/16 06:21:15;;;;;;;19.67;11.48;;;22.30;92.70;;;;;;5063235;28;20044;-70
2023/06/16 06:23:41;;;;;;;17.83;10.98;;;22.30;92.40;;;;;;5064213;28;20066;-68
2023/06/16 06:26:07;;;;;;;13.73;9.43;;;22.30;92.00;;;;;;5065074;28;20191;-68
2023/06/16 06:28:32;;;;;;;13.57;9.10;;;22.30;91.80;;;;;;5052728;28;20028;-68
2023/06/16 06:30:58;;;;;;;13.90;8.95;;;22.30;91.70;;;;;;5084472;28;20538;-68
2023/06/16 06:33:24;;;;;;;14.32;9.00;;;22.30;91.70;;;;;;5084907;28;20504;-68
2023/06/16 06:35:50;;;;;;;14.82;8.70;;;22.30;91.70;;;;;;5066710;28;20558;-70
2023/06/16 06:38:16;;;;;;;14.68;9.15;;;22.30;91.70;;;;;;5083369;28;20082;-68
2023/06/16 06:40:41;;;;;;;14.52;8.55;;;22.30;91.70;;;;;;5078824;28;20098;-72
2023/06/16 06:43:07;;;;;;;16.48;8.73;;;22.30;91.70;;;;;;5063808;28;20518;-70
2023/06/16 06:45:32;;;;;;;12.90;8.65;;;22.40;91.60;;;;;;5064053;28;20638;-69
2023/06/16 06:47:58;;;;;;;12.85;8.23;;;22.50;91.60;;;;;;5064128;28;20048;-68
2023/06/16 06:50:23;;;;;;;13.73;7.95;;;22.60;91.50;;;;;;5063580;28;20032;-68
2023/06/16 06:52:49;;;;;;;13.73;8.20;;;22.70;91.40;;;;;;5063207;28;20071;-69
2023/06/16 06:55:15;;;;;;;13.07;8.70;;;22.70;91.50;;;;;;5064001;28;20125;-69
2023/06/16 06:57:42;;;;;;;12.05;7.25;;;22.80;91.20;;;;;;5064623;28;20075;-67
2023/06/16 07:00:08;;;;;;;12.05;8.00;;;22.80;91.10;;;;;;5047467;28;20385;-69
2023/06/16 07:02:35;;;;;;;13.77;7.80;;;22.80;91.00;;;;;;5063818;28;20052;-68
2023/06/16 07:05:02;;;;;;;17.85;8.30;;;22.80;91.00;;;;;;5047397;28;20060;-69
2023/06/16 07:07:27;;;;;;;15.30;9.93;;;22.70;91.00;;;;;;5046771;28;20040;-70
2023/06/16 07:09:53;;;;;;;16.33;9.45;;;22.70;90.60;;;;;;5066689;28;20032;-68
2023/06/16 07:12:19;;;;;;;13.95;9.15;;;22.60;90.70;;;;;;5065011;28;20504;-70
2023/06/16 07:14:47;;;;;;;18.13;9.48;;;22.60;90.60;;;;;;5078948;28;20050;-70
2023/06/16 07:17:13;;;;;;;13.70;8.50;;;22.60;90.60;;;;;;5067297;28;20070;-72
2023/06/16 07:19:39;;;;;;;13.77;8.00;;;22.60;90.60;;;;;;5084427;28;20605;-69
2023/06/16 07:22:05;;;;;;;13.30;8.05;;;22.50;90.60;;;;;;5057401;28;20149;-72
2023/06/16 07:24:31;;;;;;;13.98;8.25;;;22.50;90.80;;;;;;5046888;28;20099;-67
2023/06/16 07:26:59;;;;;;;11.02;7.32;;;22.50;91.00;;;;;;5064020;28;20122;-68
2023/06/16 07:29:25;;;;;;;13.73;6.93;;;22.40;90.90;;;;;;5063953;28;20496;-70
2023/06/16 07:31:51;;;;;;;10.27;7.43;;;22.40;91.00;;;;;;5063200;28;20040;-68
2023/06/16 07:34:17;;;;;;;13.48;7.45;;;22.40;91.20;;;;;;5064141;28;20047;-67
2023/06/16 07:36:43;;;;;;;13.73;7.63;;;22.30;91.10;;;;;;5061592;28;20050;-70
2023/06/16 07:39:08;;;;;;;12.15;7.47;;;22.30;91.10;;;;;;5063137;28;20055;-70
2023/06/16 07:41:34;;;;;;;11.35;6.45;;;22.40;91.20;;;;;;5058390;28;20032;-70
2023/06/16 07:43:59;;;;;;;10.00;6.20;;;22.30;91.30;;;;;;5074214;28;20040;-71
2023/06/16 07:46:25;;;;;;;13.32;6.70;;;22.30;91.10;;;;;;5046590;28;20063;-68
2023/06/16 07:48:51;;;;;;;11.15;7.22;;;22.30;91.10;;;;;;5063898;28;20040;-68
2023/06/16 07:51:16;;;;;;;10.32;6.82;;;22.40;91.00;;;;;;5062209;28;20048;-68
2023/06/16 07:53:42;;;;;;;13.45;6.60;;;22.40;91.10;;;;;;5062795;28;20644;-67
2023/06/16 07:56:08;;;;;;;9.77;7.50;;;22.40;91.10;;;;;;5063115;28;20046;-68
2023/06/16 07:58:36;;;;;;;16.73;6.88;;;22.40;90.90;;;;;;5063244;28;20518;-68
2023/06/16 08:01:02;;;;;;;8.82;6.18;;;22.40;91.00;;;;;;5046637;28;20048;-70
2023/06/16 08:03:28;;;;;;;8.23;5.55;;;22.40;90.70;;;;;;5063212;28;20045;-70
2023/06/16 08:05:55;;;;;;;9.77;6.20;;;22.50;90.70;;;;;;5061844;28;20058;-71
2023/06/16 08:08:21;;;;;;;9.98;5.97;;;22.50;90.40;;;;;;5063230;28;20063;-72
2023/06/16 08:10:46;;;;;;;9.93;5.28;;;22.50;90.30;;;;;;5050823;28;20132;-68
2023/06/16 08:13:12;;;;;;;11.48;6.97;;;22.50;90.30;;;;;;5080991;28;20048;-71
2023/06/16 08:15:38;;;;;;;10.82;6.05;;;22.50;90.20;;;;;;5079923;28;20049;-71
2023/06/16 08:18:03;;;;;;;9.48;5.85;;;22.60;90.20;;;;;;5079578;28;20123;-67
2023/06/16 08:20:29;;;;;;;9.13;5.28;;;22.60;90.30;;;;;;5064492;28;20036;-71
2023/06/16 08:22:55;;;;;;;9.23;5.30;;;22.60;90.00;;;;;;5050146;28;20562;-69
2023/06/16 08:25:21;;;;;;;8.35;5.07;;;22.70;89.30;;;;;;5050068;28;20055;-70
2023/06/16 08:27:47;;;;;;;11.57;6.10;;;22.80;89.00;;;;;;5067026;28;20036;-67
2023/06/16 08:30:15;;;;;;;8.50;5.20;;;22.80;88.50;;;;;;5085226;28;20085;-67
2023/06/16 08:32:41;;;;;;;11.82;5.70;;;22.80;88.00;;;;;;5070679;28;20122;-69
2023/06/16 08:35:07;;;;;;;9.40;5.35;;;22.80;87.80;;;;;;5086395;28;20127;-68
2023/06/16 08:37:32;;;;;;;10.13;5.70;;;22.80;87.30;;;;;;5077527;28;20648;-68
2023/06/16 08:39:59;;;;;;;10.55;5.20;;;22.80;87.40;;;;;;5049918;28;20098;-71
2023/06/16 08:42:24;;;;;;;9.75;4.80;;;22.80;87.70;;;;;;5050454;28;20044;-71
2023/06/16 08:44:53;;;;;;;9.50;5.20;;;22.80;86.60;;;;;;5081500;28;20128;-72
2023/06/16 08:47:18;;;;;;;8.43;4.60;;;22.80;85.00;;;;;;5087035;28;20551;-68
2023/06/16 08:49:44;;;;;;;7.55;4.13;;;22.80;84.20;;;;;;5070431;28;20143;-71
2023/06/16 08:52:12;;;;;;;10.27;4.38;;;22.80;84.10;;;;;;5051368;28;20813;-70
2023/06/16 08:54:48;;;;;;;9.10;4.55;;;22.80;82.80;;;;;;5049371;28;20127;-74
2023/06/16 08:57:14;;;;;;;8.50;4.53;;;22.90;82.40;;;;;;5050292;28;20087;-69
2023/06/16 08:59:45;;;;;;;8.25;4.00;;;22.90;80.80;;;;;;5066921;28;20436;-68
2023/06/16 09:02:11;;;;;;;9.43;3.90;;;22.90;79.30;;;;;;5066869;28;20055;-67
2023/06/16 09:04:38;;;;;;;9.57;3.83;;;22.90;78.60;;;;;;5066769;28;20040;-72
2023/06/16 09:07:04;;;;;;;11.90;4.10;;;23.00;78.00;;;;;;5048416;28;20070;-68
2023/06/16 09:09:31;;;;;;;8.23;3.63;;;23.00;77.50;;;;;;5065765;28;20044;-73
2023/06/16 09:12:08;;;;;;;6.65;3.42;;;23.10;77.00;;;;;;5080639;28;20099;-68
2023/06/16 09:14:37;;;;;;;7.78;3.25;;;23.30;75.40;;;;;;5056031;28;20091;-72
2023/06/16 09:17:05;;;;;;;7.60;3.20;;;23.30;75.40;;;;;;5049387;28;20286;-69
2023/06/16 09:19:34;;;;;;;6.18;2.90;;;23.30;74.00;;;;;;5049489;28;20036;-67
2023/06/16 09:22:01;;;;;;;7.70;3.38;;;23.30;73.20;;;;;;5064646;28;20055;-74
2023/06/16 09:24:27;;;;;;;8.30;3.20;;;23.40;72.30;;;;;;5065703;28;20041;-67
2023/06/16 09:27:03;;;;;;;5.90;2.58;;;23.40;70.30;;;;;;5065471;28;20443;-68
2023/06/16 09:29:29;;;;;;;6.72;3.42;;;23.30;70.10;;;;;;5066157;28;20474;-70
2023/06/16 09:32:09;;;;;;;7.25;3.20;;;23.30;70.60;;;;;;5049177;28;20642;-68
2023/06/16 09:34:36;;;;;;;8.43;3.10;;;23.30;69.80;;;;;;5065962;28;20186;-71
2023/06/16 09:37:10;;;;;;;6.22;3.10;;;23.30;69.90;;;;;;5064587;28;20731;-70
2023/06/16 09:39:36;;;;;;;7.10;3.20;;;23.30;70.10;;;;;;5066487;28;20083;-71
2023/06/16 09:42:02;;;;;;;7.03;3.03;;;23.30;71.00;;;;;;5049623;28;20045;-64
2023/06/16 09:44:29;;;;;;;8.50;3.30;;;23.40;70.80;;;;;;5065141;28;20040;-69
2023/06/16 09:46:58;;;;;;;9.68;3.20;;;23.40;69.60;;;;;;5086005;28;20080;-69
2023/06/16 09:49:25;;;;;;;9.93;3.70;;;23.30;69.60;;;;;;5085811;28;20047;-66
2023/06/16 09:51:56;;;;;;;10.00;3.50;;;23.30;70.40;;;;;;5077173;28;20048;-67
2023/06/16 09:54:24;;;;;;;7.07;3.35;;;23.30;69.90;;;;;;5065101;28;20514;-69
2023/06/16 09:56:51;;;;;;;7.68;3.38;;;23.40;69.90;;;;;;5064912;28;20036;-69
2023/06/16 09:59:17;;;;;;;8.13;3.42;;;23.40;69.50;;;;;;5065412;28;20052;-68
2023/06/16 10:01:46;;;;;;;6.00;3.05;;;23.50;70.00;;;;;;5048355;28;20055;-69
2023/06/16 10:04:15;;;;;;;6.68;2.80;;;23.50;70.40;;;;;;5065051;28;20178;-70
2023/06/16 10:06:48;;;;;;;10.38;3.40;;;23.50;71.10;;;;;;5062907;28;20074;-66
2023/06/16 10:09:17;;;;;;;6.90;3.20;;;23.60;71.50;;;;;;5048525;28;20044;-71
2023/06/16 10:11:46;;;;;;;7.35;3.50;;;23.60;71.40;;;;;;5068565;28;20039;-69
2023/06/16 10:14:13;;;;;;;7.97;3.45;;;23.60;71.40;;;;;;5075103;28;20087;-70
2023/06/16 10:16:40;;;;;;;6.05;3.10;;;23.60;71.10;;;;;;5064261;28;20053;-70
2023/06/16 10:19:07;;;;;;;6.60;3.40;;;23.70;71.30;;;;;;5065326;28;20098;-68
2023/06/16 10:21:33;;;;;;;7.88;3.03;;;23.80;70.80;;;;;;5063309;28;20048;-69
2023/06/16 10:24:01;;;;;;;9.32;3.97;;;23.80;70.40;;;;;;5047498;28;20040;-69
2023/06/16 10:26:28;;;;;;;9.57;3.25;;;23.90;70.40;;;;;;5047814;28;20048;-69
2023/06/16 10:28:54;;;;;;;6.90;3.15;;;23.90;70.50;;;;;;5064748;28;20066;-69
2023/06/16 10:31:23;;;;;;;8.52;3.50;;;24.00;70.90;;;;;;5064493;28;20071;-69
2023/06/16 10:33:57;;;;;;;6.00;3.03;;;24.00;70.30;;;;;;5064783;28;20055;-68
2023/06/16 10:36:33;;;;;;;6.05;3.10;;;24.10;69.70;;;;;;5063565;28;20496;-69
2023/06/16 10:39:00;;;;;;;6.80;2.60;;;24.10;69.20;;;;;;5063916;28;20443;-67
2023/06/16 10:41:29;;;;;;;7.85;3.22;;;24.20;68.80;;;;;;5064499;28;20044;-68
2023/06/16 10:43:55;;;;;;;8.65;3.33;;;24.10;68.30;;;;;;5063880;28;20473;-70
2023/06/16 10:46:21;;;;;;;8.15;3.55;;;24.20;68.40;;;;;;5047291;28;20117;-66
2023/06/16 10:49:05;;;;;;;6.53;3.38;;;24.10;68.40;;;;;;5064248;28;20119;-67
2023/06/16 10:51:41;;;;;;;6.72;2.85;;;24.20;67.10;;;;;;5062746;28;20120;-67
2023/06/16 10:54:08;;;;;;;6.55;3.15;;;24.10;67.10;;;;;;5063922;28;20071;-69
2023/06/16 10:57:03;;;;;;;5.82;2.70;;;24.10;67.90;;;;;;5063820;28;20055;-69
2023/06/16 10:59:50;;;;;;;6.40;3.13;;;24.20;68.10;;;;;;5064090;28;20537;-66
2023/06/16 11:02:20;;;;;;;8.68;2.55;;;24.20;67.30;;;;;;5064181;28;20052;-69
2023/06/16 11:05:04;;;;;;;8.45;3.15;;;24.20;67.20;;;;;;5064206;28;20093;-66
2023/06/16 11:07:30;;;;;;;7.65;3.20;;;24.20;66.60;;;;;;5062452;28;20377;-68
2023/06/16 11:09:58;;;;;;;10.77;2.92;;;24.20;67.10;;;;;;5063606;28;20038;-69
2023/06/16 11:12:25;;;;;;;7.03;3.13;;;24.30;67.30;;;;;;5063673;28;20264;-69
2023/06/16 11:14:52;;;;;;;5.95;3.05;;;24.40;66.70;;;;;;5077612;28;20054;-68
2023/06/16 11:17:18;;;;;;;6.70;2.70;;;24.40;66.00;;;;;;5083911;28;20048;-66
2023/06/16 11:19:49;;;;;;;5.32;2.63;;;24.40;65.90;;;;;;5064439;28;20131;-68
2023/06/16 11:22:15;;;;;;;7.03;2.45;;;24.30;65.50;;;;;;5045740;28;20047;-71
2023/06/16 11:24:40;;;;;;;7.47;3.13;;;24.40;64.80;;;;;;5046391;28;20036;-67
2023/06/16 11:27:07;;;;;;;6.93;2.90;;;24.40;64.60;;;;;;5063840;28;20072;-65
2023/06/16 11:29:36;;;;;;;7.45;2.80;;;24.40;64.70;;;;;;5063531;28;20098;-69
2023/06/16 11:32:02;;;;;;;9.60;3.00;;;24.40;64.50;;;;;;5063390;28;20111;-69
2023/06/16 11:34:28;;;;;;;7.25;2.60;;;24.40;64.10;;;;;;5063903;28;20393;-70
2023/06/16 11:36:54;;;;;;;5.30;2.78;;;24.40;63.70;;;;;;5064084;28;20515;-71
2023/06/16 11:39:20;;;;;;;6.22;2.80;;;24.50;63.80;;;;;;5078522;28;20173;-70
2023/06/16 11:41:46;;;;;;;7.32;2.85;;;24.50;63.60;;;;;;5053733;28;20051;-69
2023/06/16 11:44:13;;;;;;;8.32;2.47;;;24.60;62.80;;;;;;5063640;28;20392;-68
2023/06/16 11:46:39;;;;;;;6.85;2.50;;;24.50;63.00;;;;;;5063215;28;20404;-69
2023/06/16 11:49:05;;;;;;;6.75;2.75;;;24.60;63.40;;;;;;5047232;28;20123;-68
2023/06/16 11:51:33;;;;;;;10.07;2.63;;;24.70;63.40;;;;;;5062236;28;20047;-66
2023/06/16 11:54:01;;;;;;;6.90;2.40;;;24.90;63.80;;;;;;5062995;28;20131;-65
2023/06/16 11:56:27;;;;;;;6.75;2.70;;;25.00;63.70;;;;;;5050816;28;20036;-68
2023/06/16 11:58:53;;;;;;;7.28;2.78;;;25.10;63.20;;;;;;5067601;28;20114;-69
2023/06/16 12:01:20;;;;;;;8.32;2.40;;;25.20;63.30;;;;;;5067399;28;20356;-67
2023/06/16 12:03:46;;;;;;;5.93;2.25;;;25.20;62.90;;;;;;5067559;28;20655;-67
2023/06/16 12:06:13;;;;;;;7.70;2.97;;;25.20;62.80;;;;;;5065442;28;20068;-67
2023/06/16 12:08:44;;;;;;;8.13;2.63;;;25.30;62.80;;;;;;5067067;28;20044;-68
2023/06/16 12:11:11;;;;;;;9.98;2.78;;;25.30;63.50;;;;;;5051332;28;20044;-66
2023/06/16 12:13:37;;;;;;;9.18;2.90;;;25.30;62.80;;;;;;5067722;28;20139;-69
2023/06/16 12:16:04;;;;;;;7.20;2.53;;;25.30;62.30;;;;;;5067158;28;20448;-71
2023/06/16 12:18:31;;;;;;;7.40;2.80;;;25.20;62.10;;;;;;5051114;28;20619;-67
2023/06/16 12:20:57;;;;;;;6.13;2.50;;;25.20;61.90;;;;;;5065895;28;20048;-68
2023/06/16 12:23:22;;;;;;;10.82;2.92;;;25.10;61.70;;;;;;5082249;28;20054;-70
2023/06/16 12:25:49;;;;;;;10.50;3.00;;;25.10;62.50;;;;;;5085357;28;20067;-72
2023/06/16 12:28:20;;;;;;;5.65;2.53;;;25.10;62.00;;;;;;5086046;28;20044;-65
2023/06/16 12:30:46;;;;;;;5.65;2.22;;;25.10;61.50;;;;;;5066959;28;20119;-66
2023/06/16 12:33:12;;;;;;;8.63;2.50;;;25.00;60.90;;;;;;5067192;28;20514;-68
2023/06/16 12:35:39;;;;;;;6.78;2.80;;;24.90;61.30;;;;;;5065692;28;20048;-67
2023/06/16 12:38:05;;;;;;;7.18;2.60;;;24.90;61.10;;;;;;5049377;28;20036;-67